Scroll down
FLIGHT INFORMATION
Alaska Airlines

ASA99

At Arrival Gate

KEGE
 KRNO
DATE: 2020-01-15
GATE:  -
GATE DEPARTURE: 16:00
TAKEOFF: 16:09
DATE: 2020-01-16
GATE:  -
LANDING: 17:43
GATE ARRIVAL: 17:55
FLIGHT DATA
Crew: 
Speed: 
465 kts
Altitude: 
37,001 ft
Stage Length: 
594.4 nm
Block Time: 
1.9 hrs
Flight Time: 
1.6 hrs
Fuel Used: 
9,698 lb
Cleared Route: 
TRACK DATA
50,000 ft 1,000 kts
AIRCRAFT INFO AND CUMULATIVE STATS
Aircraft Type: 
B739SSW
Registration: 
SELCAL: 
MSN/LN: 
33679 / 1344
Operator: 
Total Flights: 
14
Total Block Time: 
20 hrs
Total Flight Time: 
16.9 hrs
Total Fuel Time: 
142,026 lb
DATALINK LOG | Newest first | Current as of: 2021-06-22 13:45:53
LABEL SEQUENCE CONTENT Dn/Up
QA015916:00 16.1▼ Dn
A30054CLEARED TO KRNO VIA KEGE KRNO ASA099 N319AS . SQUAWK 3733.▲ Up
B35611KEGE KRNO ASA099 N319AS ▼ Dn
5U0054KEGE 142327Z 1500/1524 26010KT P6SM FEW050 SCT200 FM150200 25011KT P6SM FEW045 BKN090 FM150600 27005KT P6SM SCT035 BKN050 FM151200 VRB04KT P6SM SCT060 BKN150 FM151800 25004KT P6SM BKN250▲ Up
5U0054KRNO 142320Z 1500/1524 27011G20KT P6SM BKN200 WS005/25020KT FM150600 34005KT P6SM BKN200 FM151200 VRB04KT P6SM BKN180 FM152200 24005KT P6SM BKN180▲ Up
5S5658KEGE KRNO▼ Dn
2U5943KRNO 150255Z 32006KT 10SM FEW070 BKN250 02/M09 A3006 RMK AO2 SLP182 T00171094 53011▲ Up
2U5943KEGE 150256Z AUTO 15004KT 10SM BKN085 M03/M10 A2991 RMK AO2 SLP204 6//// T10331100 51017 FZRANO PNO $▲ Up
2S5650KEGE KRNO▼ Dn
Q05742[LINK ACK]▲ Up
Q05450[LINK TEST]▼ Dn


AIRCRAFT HISTORY
FLIGHT DATE FLIGHT NO. ORIGIN DESTINATION CLEARED ROUTE BLOCK TIME FLIGHT TIME FUEL USED PILOT
2020-11-13ASA901KSEA KBUR KSEA NEVJO SUMMA SMIGE SUNBE FRA REBRG MMTLY CRUUE EEAZY HIHWY MAIDD PEPRZ HEVVY ROKKR ZEPPE IVINS MIKEI RW082.1 hrs1.9 hrs11,576 lbDan Downs
2020-07-14ASA1202KPDX KSEA KPDX COUGA KRIEG KSEA0.7 hrs0.6 hrs4,211 lbMichael Roth
2020-05-23ASA522KPAE KPDX 0.9 hrs0.6 hrs5,096 lbCharles Harris
2020-02-01ASA201KIDA KPAE 1.7 hrs1.5 hrs8,300 lbJhan Jensen
2020-01-23ASA327KRNO KIDA 1.7 hrs1.6 hrs9,136 lbJhan Jensen
2020-01-15ASA99KEGE KRNO 1.9 hrs1.6 hrs9,698 lbJhan Jensen
2020-01-11ASA182KJAC KEGE 1.2 hrs0.9 hrs6,449 lbJhan Jensen
2020-01-03ASA68KGPI KJAC 1.4 hrs1 hrs5,452 lbJhan Jensen
2020-01-03ASA67CYYC KGPI 0.8 hrs0.7 hrs4,803 lbJhan Jensen
2019-11-24ASA1124KLAX CYYC 1.1 hrs0.8 hrs41,517 lbRandall Smith
2019-11-24ASA9722KSAN KLAX 0.6 hrs0.4 hrs3,440 lbKyle Weber
2019-11-24ASA135KSLC KSAN 1.6 hrs1.5 hrs8,755 lbJhan Jensen
2019-11-16ASA172KSEA KSLC 1.8 hrs1.6 hrs9,842 lbJhan Jensen
2019-11-07ASA955KLAS KSEA 2.5 hrs2.3 hrs13,750 lbAllan Burek